Date,TemperatureHighF,TemperatureAvgF,TemperatureLowF,DewpointHighF,DewpointAvgF,DewpointLowF,HumidityHigh,HumidityAvg,HumidityLow,PressureMaxIn,PressureMinIn,WindSpeedMaxMPH,WindSpeedAvgMPH,GustSpeedMaxMPH,PrecipitationSumIn
2013-10-1,73,65,57,64,60,54,98,87,57,29.14,28.97,15,3,16,0.00
2013-10-2,75,67,53,66,62,52,98,86,47,29.14,28.97,14,4,18,0.00
2013-10-3,73,59,46,59,51,42,98,79,36,29.25,29.05,4,1,5,0.28
2013-10-4,67,63,60,67,62,58,99,98,95,29.12,29.03,6,1,7,0.36
2013-10-5,63,60,58,62,59,57,98,97,94,29.15,29.06,9,2,11,0.40
2013-10-6,80,68,60,73,65,59,99,91,66,29.05,28.81,11,2,14,0.32
2013-10-7,74,60,50,66,55,45,98,85,63,29.03,28.70,20,6,27,0.50
2013-10-8,65,54,46,53,47,43,97,82,48,29.39,29.03,9,2,12,0.00
2013-10-9,70,54,40,53,46,39,97,80,39,29.46,29.23,7,1,8,0.00
2013-10-10,70,54,39,53,45,38,97,78,34,29.35,29.10,6,1,10,0.00
2013-10-11,71,54,44,57,49,43,97,84,48,29.26,29.07,6,1,9,0.00
2013-10-12,75,58,42,55,46,37,97,69,27,29.29,29.07,10,2,11,0.01
2013-10-13,68,62,57,64,55,43,98,79,55,29.33,29.17,11,2,11,0.20
2013-10-14,65,56,45,61,51,44,98,85,55,29.40,29.23,8,2,14,0.09
2013-10-15,70,56,41,57,51,40,97,86,59,29.25,28.97,9,2,12,0.00
2013-10-16,70,63,55,62,58,53,98,86,70,28.98,28.80,16,5,20,0.24
2013-10-17,63,55,50,55,51,48,97,89,66,28.92,28.70,14,3,14,0.28
2013-10-18,59,53,48,51,46,38,97,81,52,28.91,28.71,21,5,24,0.01
2013-10-19,60,52,43,52,47,42,97,83,58,28.87,28.63,14,5,19,0.18
2013-10-20,54,46,40,47,43,39,97,89,62,28.93,28.69,13,4,16,0.00
2013-10-21,66,55,46,53,43,37,97,68,37,28.95,28.77,26,6,27,0.12
2013-10-22,50,45,41,49,37,29,97,74,51,28.81,28.72,19,6,27,0.38
2013-10-23,46,40,35,44,38,32,96,90,71,28.75,28.65,12,3,13,0.05
2013-10-24,47,40,33,40,36,32,96,87,65,28.93,28.68,17,6,22,0.09
2013-10-25,49,41,34,43,38,33,96,87,62,29.14,28.92,14,3,18,0.25
2013-10-26,45,41,38,41,37,31,96,86,63,29.03,28.69,27,9,35,0.36
2013-10-27,48,41,36,43,38,35,96,87,68,28.96,28.72,14,4,17,0.00
2013-10-28,49,42,27,42,33,21,94,73,35,29.28,28.94,14,3,16,0.00
2013-10-29,49,36,25,36,30,24,95,79,44,29.39,29.17,9,2,11,0.00
2013-10-30,60,45,38,45,40,37,96,84,51,29.19,29.00,6,2,9,0.03
2013-10-31,68,57,44,61,54,41,98,90,71,29.00,28.36,25,6,29,0.53